Salt Lake City, Utah
Current Conditions -  °F | °C
As of 4:53 AM on Tuesday 21 Oct 2014 (Local Time) from KSLC Reporting Station
Broken Clouds Broken Clouds  
Wind Chill: 64°   Ceiling: 13000
Heat Index: 64°   Visibility: 10mi
Dew Point: 40°   Wind: 17mph
Humidity: 41%   Direction: 160°SSE
Pressure: 29.87"   Gusts: NA
Location:  40.76°N, 111.88°W
Report Text: KSLC 211053Z 16015KT 10SM FEW110 BKN130 18/04 A2987 RMK AO2 SLP066 T01780044
Loading
Personal Weather Stations






























Interactive Weather Map
Tropical Storm Tracking
New forecast layout! Learn more

10-Day Weather Forecast

Advertisements
Track Severe Weather on mobile